Current | Forecast
Updated: 6:30 PM JST on April 26, 2018
Observed at Chitose AB, Japan
Temperature 54°F
Humidity 51%
Dew Point 36°F
Wind Variable at 2 mph
Pressure 29.59 in (Steady)
Conditions Clear
Visibility -
UV N/A
Clouds
Yesterday's Maximum 54°F
Yesterday's Minimum 43°F approx.
Yesterday's Heating Degree Days 17 approx.
Sunrise4:36 AM JST
Sunset6:29 PM JST
Moon Rise2:14 PM JST
Moon Set2:52 AM JST
Moon PhaseMoon Phase
Waxing Gibbous
Raw METARMETAR RJCC 260930Z VRB02KT CAVOK 12/02 Q1002 RMK A2961


Monday
. High: 73° F.
Tuesday
. High: 71° F.
Wednesday
. High: 62° F.
Thursday
. High: 64° F.
Friday
. High: 66° F.
Saturday
. High: 62° F.
Sunday
. High: 51° F.
Monday
. High: 55° F.

Units: English | Metric

Find the Weather for any City, State or Zipcode, or Country:

U.S. State List | Severe Weather | Tropical Storms | Ski Conditions
United States | Canada | Central America | South America | Asia | Europe | Australia | Africa | Islands

Weather Underground

© Copyright 2018
The Weather Company, LLC